Time;durP1;ratioP1;P1;durP2;ratioP2;P2;SDS_P1;SDS_P2;PMS_P1;PMS_P2;Temp;Humidity;BMP_temperature;BMP_pressure;BME280_temperature;BME280_humidity;BME280_pressure;Samples;Min_cycle;Max_cycle;Signal;HPM_P1;HPM_P2
2023/10/25 00:01:54;;;;;;;14.43;6.50;;;;;;;7.63;100.00;99942.91;5117174;28;20471;-78
2023/10/25 00:04:20;;;;;;;11.52;5.90;;;;;;;7.47;100.00;99914.97;5116990;28;20471;-79
2023/10/25 00:06:48;;;;;;;11.88;5.60;;;;;;;7.37;100.00;99911.19;5116911;28;20026;-79
2023/10/25 00:09:19;;;;;;;13.18;6.03;;;;;;;7.29;100.00;99895.50;5135178;28;20041;-79
2023/10/25 00:11:44;;;;;;;15.40;7.90;;;;;;;7.44;100.00;99922.59;5116659;28;20019;-78
2023/10/25 00:14:10;;;;;;;17.02;7.78;;;;;;;7.58;100.00;99933.94;5135201;28;20499;-78
2023/10/25 00:16:35;;;;;;;16.25;8.02;;;;;;;7.58;100.00;99945.41;5116831;28;20025;-79
2023/10/25 00:19:00;;;;;;;15.27;8.95;;;;;;;7.60;100.00;99930.03;5116641;28;20023;-78
2023/10/25 00:21:26;;;;;;;13.05;6.63;;;;;;;7.57;100.00;99922.50;5135202;28;20042;-78
2023/10/25 00:23:51;;;;;;;20.75;8.32;;;;;;;7.56;100.00;99925.38;5135124;28;20038;-78
2023/10/25 00:26:17;;;;;;;19.73;9.48;;;;;;;7.53;100.00;99920.50;5134969;28;20027;-78
2023/10/25 00:28:42;;;;;;;19.08;9.45;;;;;;;7.50;100.00;99920.91;5134953;28;20023;-79
2023/10/25 00:31:07;;;;;;;15.63;8.25;;;;;;;7.45;100.00;99922.38;5115965;28;20152;-79
2023/10/25 00:33:33;;;;;;;14.25;8.18;;;;;;;7.42;100.00;99920.13;5116525;28;20122;-79
2023/10/25 00:35:58;;;;;;;13.45;7.75;;;;;;;7.42;100.00;99920.13;5135325;28;20474;-79
2023/10/25 00:38:23;;;;;;;14.45;7.78;;;;;;;7.37;100.00;99932.47;5134721;28;20059;-79
2023/10/25 00:40:49;;;;;;;15.65;8.32;;;;;;;7.34;100.00;99933.72;5134784;28;20387;-79
2023/10/25 00:43:16;;;;;;;19.33;8.15;;;;;;;7.30;100.00;99935.19;5134733;28;20034;-78
2023/10/25 00:45:50;;;;;;;17.65;8.93;;;;;;;7.24;100.00;99929.91;5116257;28;20454;-79
2023/10/25 00:48:15;;;;;;;13.68;7.85;;;;;;;7.23;100.00;99928.25;5116257;28;20043;-78
2023/10/25 00:50:40;;;;;;;17.55;8.02;;;;;;;7.21;100.00;99922.34;5134710;28;20027;-78
2023/10/25 00:53:06;;;;;;;16.05;7.63;;;;;;;7.12;100.00;99922.59;5116184;28;20035;-78
2023/10/25 00:55:31;;;;;;;17.45;7.95;;;;;;;7.13;100.00;99924.22;5116129;28;20039;-77
2023/10/25 00:57:57;;;;;;;12.40;6.90;;;;;;;7.09;100.00;99922.22;5134562;28;20080;-78
2023/10/25 01:00:22;;;;;;;14.07;6.75;;;;;;;7.07;100.00;99916.31;5134340;28;20035;-78
2023/10/25 01:02:47;;;;;;;13.75;7.53;;;;;;;7.06;100.00;99912.81;5116038;28;20027;-79
2023/10/25 01:05:15;;;;;;;14.98;7.07;;;;;;;6.99;100.00;99909.41;5115920;28;20424;-78
2023/10/25 01:07:40;;;;;;;12.57;6.68;;;;;;;7.03;100.00;99918.56;5134543;28;20110;-78
2023/10/25 01:10:08;;;;;;;17.23;6.72;;;;;;;6.96;100.00;99909.03;5134364;28;20110;-77
2023/10/25 01:12:33;;;;;;;16.85;7.07;;;;;;;6.97;100.00;99911.47;5115879;28;20569;-77
2023/10/25 01:14:58;;;;;;;15.00;6.43;;;;;;;6.93;100.00;99907.56;5134144;28;20098;-78
2023/10/25 01:17:24;;;;;;;11.52;6.13;;;;;;;6.93;100.00;99904.91;5134191;28;20062;-77
2023/10/25 01:19:49;;;;;;;16.80;5.65;;;;;;;6.93;100.00;99904.09;5134048;27;20067;-77
2023/10/25 01:22:14;;;;;;;12.68;6.43;;;;;;;6.95;100.00;99905.53;5115771;28;20023;-77
2023/10/25 01:24:40;;;;;;;9.75;5.93;;;;;;;6.95;100.00;99894.09;5134016;28;20030;-77
2023/10/25 01:27:05;;;;;;;11.48;6.15;;;;;;;6.97;100.00;99890.19;5134007;28;20111;-78
2023/10/25 01:29:30;;;;;;;15.20;6.18;;;;;;;6.97;100.00;99884.06;5115609;28;20055;-78
2023/10/25 01:31:56;;;;;;;9.90;6.35;;;;;;;6.95;100.00;99878.97;5115561;28;20079;-77
2023/10/25 01:34:21;;;;;;;11.88;5.55;;;;;;;6.97;100.00;99881.41;5133931;28;20125;-78
2023/10/25 01:36:46;;;;;;;10.85;5.50;;;;;;;6.98;100.00;99875.88;5133756;28;20075;-78
2023/10/25 01:39:12;;;;;;;9.57;5.15;;;;;;;6.95;100.00;99864.88;5115215;28;20026;-78
2023/10/25 01:41:37;;;;;;;14.60;6.07;;;;;;;6.92;100.00;99866.09;5133890;28;20106;-78
2023/10/25 01:44:02;;;;;;;9.32;5.18;;;;;;;6.89;100.00;99861.19;5114326;28;20015;-78
2023/10/25 01:46:27;;;;;;;11.45;5.25;;;;;;;6.91;100.00;99859.13;5115307;28;20027;-78
2023/10/25 01:48:53;;;;;;;14.48;5.90;;;;;;;6.92;100.00;99863.44;5133671;28;20039;-78
2023/10/25 01:51:18;;;;;;;9.05;5.13;;;;;;;6.90;100.00;99859.34;5133606;28;20016;-78
2023/10/25 01:53:43;;;;;;;14.50;6.00;;;;;;;6.84;100.00;99853.88;5133651;28;20114;-78
2023/10/25 01:56:09;;;;;;;10.85;5.30;;;;;;;6.88;100.00;99846.28;5133609;28;20031;-77
2023/10/25 01:58:34;;;;;;;10.60;4.97;;;;;;;6.85;100.00;99838.75;5133476;28;20471;-77
2023/10/25 02:01:03;;;;;;;13.30;5.60;;;;;;;6.88;100.00;99840.16;5133545;28;20057;-76
2023/10/25 02:03:29;;;;;;;15.00;6.30;;;;;;;6.84;100.00;99832.63;5133485;28;20071;-77
2023/10/25 02:05:54;;;;;;;10.77;5.72;;;;;;;6.95;100.00;99839.09;5133390;28;20027;-77
2023/10/25 02:08:19;;;;;;;10.38;6.32;;;;;;;6.97;100.00;99841.56;5114930;28;20030;-77
2023/10/25 02:10:45;;;;;;;14.43;5.57;;;;;;;7.06;100.00;99837.59;5133359;28;20026;-77
2023/10/25 02:13:10;;;;;;;9.68;5.30;;;;;;;7.07;100.00;99832.06;5133248;28;20102;-77
2023/10/25 02:15:35;;;;;;;10.50;4.95;;;;;;;7.09;100.00;99829.19;5133342;28;20026;-77
2023/10/25 02:18:00;;;;;;;9.65;5.07;;;;;;;7.09;100.00;99830.00;5133150;27;20023;-78
2023/10/25 02:20:27;;;;;;;12.82;4.88;;;;;;;7.16;100.00;99821.97;5133055;28;20098;-77
2023/10/25 02:22:54;;;;;;;12.48;5.65;;;;;;;7.15;100.00;99828.31;5133116;28;20030;-78
2023/10/25 02:25:19;;;;;;;11.98;5.65;;;;;;;7.12;100.00;99818.94;5133087;28;20030;-77
2023/10/25 02:27:44;;;;;;;10.02;5.03;;;;;;;7.12;100.00;99813.63;5114579;28;20026;-77
2023/10/25 02:30:10;;;;;;;9.07;4.57;;;;;;;7.15;100.00;99807.84;5133037;28;20035;-78
2023/10/25 02:32:35;;;;;;;11.00;4.90;;;;;;;7.11;100.00;99806.66;5133013;28;20019;-79
2023/10/25 02:35:01;;;;;;;9.55;4.82;;;;;;;7.07;100.00;99800.16;5133027;28;20039;-79
2023/10/25 02:37:26;;;;;;;10.77;5.07;;;;;;;7.13;100.00;99803.78;5132953;28;20109;-78
2023/10/25 02:39:51;;;;;;;7.65;5.20;;;;;;;7.17;100.00;99804.97;5132791;28;20057;-79
2023/10/25 02:42:16;;;;;;;12.23;4.25;;;;;;;7.21;100.00;99800.84;5132762;28;20023;-78
2023/10/25 02:44:42;;;;;;;7.93;4.63;;;;;;;7.21;100.00;99798.19;5132985;28;20378;-78
2023/10/25 02:47:07;;;;;;;8.43;4.00;;;;;;;7.23;100.00;99790.00;5132812;28;20322;-78
2023/10/25 02:49:35;;;;;;;10.55;4.28;;;;;;;7.23;100.00;99776.69;5132711;28;20106;-78
2023/10/25 02:52:01;;;;;;;8.05;4.45;;;;;;;7.28;100.00;99783.03;5132603;28;20026;-78
2023/10/25 02:54:26;;;;;;;11.05;4.30;;;;;;;7.25;100.00;99780.81;5114032;28;20027;-78
2023/10/25 02:56:51;;;;;;;7.57;3.88;;;;;;;7.23;100.00;99774.03;5114194;28;20042;-78
2023/10/25 02:59:16;;;;;;;7.03;4.03;;;;;;;7.31;100.00;99781.75;5132686;28;20466;-78
2023/10/25 03:01:42;;;;;;;11.20;4.20;;;;;;;7.31;100.00;99779.09;5114285;28;20023;-78
2023/10/25 03:04:07;;;;;;;13.50;4.70;;;;;;;7.33;100.00;99771.72;5114226;28;20471;-78
2023/10/25 03:06:33;;;;;;;8.73;4.70;;;;;;;7.35;100.00;99764.34;5132491;28;20034;-78
2023/10/25 03:08:58;;;;;;;8.15;4.97;;;;;;;7.37;100.00;99773.72;5132520;28;20027;-79
2023/10/25 03:11:23;;;;;;;10.38;4.43;;;;;;;7.37;100.00;99759.59;5132477;28;20032;-79
2023/10/25 03:13:49;;;;;;;7.22;4.72;;;;;;;7.41;100.00;99758.94;5114008;28;20019;-78
2023/10/25 03:16:14;;;;;;;9.05;5.85;;;;;;;7.39;100.00;99741.59;5132380;28;20035;-78
2023/10/25 03:18:39;;;;;;;7.93;5.10;;;;;;;7.40;100.00;99744.03;5132273;27;20055;-78
2023/10/25 03:21:05;;;;;;;10.27;4.90;;;;;;;7.38;100.00;99742.63;5132373;28;20027;-78
2023/10/25 03:23:31;;;;;;;10.65;5.05;;;;;;;7.41;100.00;99742.19;5132367;28;20027;-78
2023/10/25 03:26:06;;;;;;;7.65;5.30;;;;;;;7.40;100.00;99741.38;5132280;28;20386;-77
2023/10/25 03:28:32;;;;;;;9.95;5.03;;;;;;;7.38;100.00;99735.47;5132287;28;20034;-78
2023/10/25 03:30:58;;;;;;;13.10;5.35;;;;;;;7.38;100.00;99737.31;5132261;28;20019;-78
2023/10/25 03:33:23;;;;;;;7.47;5.00;;;;;;;7.37;100.00;99730.34;5132222;28;20023;-78
2023/10/25 03:35:53;;;;;;;10.05;4.97;;;;;;;7.37;100.00;99731.16;5132229;28;20066;-77
2023/10/25 03:38:18;;;;;;;11.50;5.40;;;;;;;7.40;100.00;99740.56;5113724;28;20031;-77
2023/10/25 03:40:44;;;;;;;9.68;4.72;;;;;;;7.36;100.00;99729.53;5132075;28;20035;-77
2023/10/25 03:43:10;;;;;;;13.02;4.90;;;;;;;7.40;100.00;99736.06;5132137;28;20028;-78
2023/10/25 03:45:35;;;;;;;8.57;5.28;;;;;;;7.37;100.00;99717.06;5132133;28;20079;-77
2023/10/25 03:48:00;;;;;;;10.07;5.00;;;;;;;7.42;100.00;99723.34;5132069;28;20076;-78
2023/10/25 03:50:25;;;;;;;13.10;5.97;;;;;;;7.42;100.00;99726.00;5131878;28;20034;-78
2023/10/25 03:52:51;;;;;;;9.20;4.75;;;;;;;7.42;100.00;99722.53;5113580;28;20287;-78
2023/10/25 03:55:16;;;;;;;11.82;6.10;;;;;;;7.38;100.00;99708.88;5113545;28;20383;-78
2023/10/25 03:57:41;;;;;;;8.07;4.57;;;;;;;7.41;100.00;99705.75;5131978;28;20030;-78
2023/10/25 04:00:09;;;;;;;11.63;4.95;;;;;;;7.41;100.00;99710.25;5131728;28;20031;-78
2023/10/25 04:02:34;;;;;;;6.63;4.80;;;;;;;7.42;100.00;99704.72;5131798;28;20024;-78
2023/10/25 04:04:59;;;;;;;11.30;5.03;;;;;;;7.42;100.00;99707.38;5131784;28;20038;-77
2023/10/25 04:07:25;;;;;;;7.28;4.55;;;;;;;7.45;100.00;99706.94;5133776;27;20479;-78
2023/10/25 04:09:50;;;;;;;10.63;4.97;;;;;;;7.50;100.00;99711.59;5135332;28;20031;-78
2023/10/25 04:12:15;;;;;;;7.63;5.13;;;;;;;7.49;100.00;99707.31;5116863;28;20031;-78
2023/10/25 04:14:44;;;;;;;8.80;5.28;;;;;;;7.53;100.00;99703.19;5135625;28;20431;-76
2023/10/25 04:17:10;;;;;;;9.43;5.63;;;;;;;7.57;100.00;99704.38;5116748;28;20041;-78
2023/10/25 04:19:36;;;;;;;10.85;5.65;;;;;;;7.55;100.00;99706.44;5135026;27;20530;-77
2023/10/25 04:22:02;;;;;;;8.63;5.18;;;;;;;7.52;100.00;99700.72;5116653;28;20429;-77
2023/10/25 04:24:27;;;;;;;8.98;5.13;;;;;;;7.61;100.00;99710.88;5116600;28;20027;-77
2023/10/25 04:26:52;;;;;;;12.73;5.50;;;;;;;7.60;100.00;99714.56;5135284;28;20031;-77
2023/10/25 04:29:17;;;;;;;11.90;5.20;;;;;;;7.60;100.00;99709.25;5116551;28;20130;-77
2023/10/25 04:31:43;;;;;;;8.65;5.75;;;;;;;7.59;100.00;99704.97;5134908;28;20272;-78
2023/10/25 04:34:08;;;;;;;13.73;5.70;;;;;;;7.58;100.00;99694.53;5134869;28;20026;-77
2023/10/25 04:36:33;;;;;;;14.85;6.47;;;;;;;7.59;100.00;99691.66;5116521;28;20530;-77
2023/10/25 04:38:58;;;;;;;10.43;6.18;;;;;;;7.59;100.00;99685.53;5116383;28;20118;-77
2023/10/25 04:41:24;;;;;;;14.13;6.03;;;;;;;7.64;100.00;99699.78;5134716;28;20031;-76
2023/10/25 04:43:49;;;;;;;15.02;6.65;;;;;;;7.62;100.00;99690.41;5116434;28;20030;-77
2023/10/25 04:46:15;;;;;;;10.93;6.32;;;;;;;7.64;100.00;99688.31;5134737;28;20491;-78
2023/10/25 04:48:40;;;;;;;10.35;6.22;;;;;;;7.65;100.00;99688.09;5116505;28;20037;-78
2023/10/25 04:51:07;;;;;;;16.55;6.28;;;;;;;7.62;100.00;99674.44;5134780;28;20078;-79
2023/10/25 04:53:32;;;;;;;16.35;6.03;;;;;;;7.63;100.00;99674.22;5134651;28;20382;-79
2023/10/25 04:55:58;;;;;;;9.77;5.88;;;;;;;7.69;100.00;99670.66;5116325;28;20015;-77
2023/10/25 04:58:25;;;;;;;10.23;5.95;;;;;;;7.64;100.00;99667.03;5116239;28;20428;-78
2023/10/25 05:00:51;;;;;;;11.45;6.03;;;;;;;7.69;100.00;99669.84;5116027;28;20071;-78
2023/10/25 05:03:17;;;;;;;11.80;6.53;;;;;;;7.67;100.00;99662.09;5134480;28;20023;-77
2023/10/25 05:05:43;;;;;;;15.60;6.53;;;;;;;7.70;100.00;99658.16;5134272;28;20020;-77
2023/10/25 05:08:08;;;;;;;14.85;6.30;;;;;;;7.69;100.00;99654.69;5115894;28;20023;-77
2023/10/25 05:10:34;;;;;;;16.15;5.82;;;;;;;7.69;100.00;99652.03;5134218;28;20110;-77
2023/10/25 05:13:00;;;;;;;9.95;5.72;;;;;;;7.70;100.00;99645.66;5115735;28;20035;-79
2023/10/25 05:15:27;;;;;;;9.65;5.30;;;;;;;7.66;100.00;99635.69;5134137;28;20391;-79
2023/10/25 05:17:53;;;;;;;13.90;5.20;;;;;;;7.75;100.00;99642.31;5115872;27;20027;-78
2023/10/25 05:20:19;;;;;;;11.40;5.55;;;;;;;7.78;100.00;99647.19;5134247;28;20110;-77
2023/10/25 05:22:50;;;;;;;10.38;5.50;;;;;;;7.75;100.00;99635.16;5115676;28;20076;-77
2023/10/25 05:25:16;;;;;;;10.45;5.20;;;;;;;7.73;100.00;99626.59;5134088;28;20034;-76
2023/10/25 05:27:42;;;;;;;10.45;4.78;;;;;;;7.81;100.00;99630.00;5133889;28;20024;-77
2023/10/25 05:30:09;;;;;;;11.80;5.55;;;;;;;7.81;100.00;99635.31;5115384;28;20091;-76
2023/10/25 05:32:36;;;;;;;12.98;5.50;;;;;;;7.80;100.00;99631.00;5133913;28;20065;-79
2023/10/25 05:35:03;;;;;;;9.85;4.93;;;;;;;7.80;100.00;99631.81;5115781;28;20038;-79
2023/10/25 05:37:30;;;;;;;11.73;5.18;;;;;;;7.78;100.00;99621.41;5133944;28;20107;-77
2023/10/25 05:39:56;;;;;;;8.23;5.38;;;;;;;7.85;100.00;99620.53;5134253;28;20091;-78
2023/10/25 05:42:23;;;;;;;7.38;5.55;;;;;;;7.84;100.00;99614.38;5135012;28;20078;-77
2023/10/25 05:44:56;;;;;;;7.07;4.90;;;;;;;7.83;100.00;99611.94;5116758;28;20066;-77
2023/10/25 05:47:26;;;;;;;10.77;5.18;;;;;;;7.84;100.00;99618.91;5134975;28;20027;-78
2023/10/25 05:49:53;;;;;;;10.68;5.53;;;;;;;7.87;100.00;99613.94;5135344;28;20038;-77
2023/10/25 05:52:19;;;;;;;13.23;5.65;;;;;;;7.82;100.00;99610.31;5116276;28;20031;-76
2023/10/25 05:54:45;;;;;;;11.75;5.80;;;;;;;7.88;100.00;99604.91;5134674;28;20034;-77
2023/10/25 05:57:13;;;;;;;11.48;5.53;;;;;;;7.90;100.00;99600.16;5133513;28;20033;-77
2023/10/25 05:59:39;;;;;;;8.20;5.30;;;;;;;7.90;100.00;99604.69;5133289;28;20039;-77
2023/10/25 06:02:12;;;;;;;9.05;5.45;;;;;;;7.90;100.00;99607.34;5115122;28;20487;-77
2023/10/25 06:04:38;;;;;;;9.13;5.30;;;;;;;7.88;100.00;99601.44;5114968;28;20369;-78
2023/10/25 06:07:06;;;;;;;8.45;5.00;;;;;;;7.91;100.00;99595.66;5133388;28;20023;-75
2023/10/25 06:09:32;;;;;;;9.00;4.55;;;;;;;7.88;100.00;99598.78;5115274;28;20114;-77
2023/10/25 06:11:57;;;;;;;9.75;4.85;;;;;;;7.95;100.00;99591.50;5133403;28;20130;-77
2023/10/25 06:14:23;;;;;;;8.45;5.10;;;;;;;7.94;100.00;99593.34;5133283;28;20035;-78
2023/10/25 06:16:49;;;;;;;9.00;4.90;;;;;;;8.00;100.00;99591.63;5133181;28;20034;-78
2023/10/25 06:19:14;;;;;;;12.15;4.85;;;;;;;8.02;100.00;99601.00;5114546;28;20058;-77
2023/10/25 06:21:39;;;;;;;8.45;5.05;;;;;;;8.01;100.00;99598.56;5133476;28;20031;-77
2023/10/25 06:24:05;;;;;;;8.75;4.57;;;;;;;7.99;100.00;99593.47;5114921;28;20562;-79
2023/10/25 06:26:30;;;;;;;7.88;5.03;;;;;;;8.00;100.00;99580.97;5133141;28;20387;-76
2023/10/25 06:28:56;;;;;;;8.77;4.72;;;;;;;8.03;100.00;99584.00;5114423;27;20426;-77
2023/10/25 06:31:21;;;;;;;9.68;4.60;;;;;;;8.06;100.00;99580.06;5133075;28;20020;-77
2023/10/25 06:33:47;;;;;;;9.52;4.95;;;;;;;8.11;100.00;99579.41;5133027;28;20033;-77
2023/10/25 06:36:12;;;;;;;12.30;5.45;;;;;;;8.12;100.00;99575.69;5114666;28;20068;-77
2023/10/25 06:38:38;;;;;;;7.05;5.10;;;;;;;8.16;100.00;99563.53;5114405;28;20027;-76
2023/10/25 06:41:04;;;;;;;8.50;4.47;;;;;;;8.11;100.00;99560.75;5114523;28;20126;-75
2023/10/25 06:43:30;;;;;;;8.85;4.32;;;;;;;8.12;100.00;99555.19;5132942;28;20427;-77
2023/10/25 06:45:57;;;;;;;13.80;4.68;;;;;;;8.17;100.00;99559.84;5132930;28;20027;-77
2023/10/25 06:48:23;;;;;;;7.10;4.72;;;;;;;8.22;100.00;99563.41;5133002;28;20054;-77
2023/10/25 06:50:50;;;;;;;8.40;5.05;;;;;;;8.22;100.00;99551.97;5133749;28;20390;-76
2023/10/25 06:53:16;;;;;;;7.18;4.72;;;;;;;8.19;100.00;99545.25;5133066;28;20023;-76
2023/10/25 06:55:42;;;;;;;10.30;4.40;;;;;;;8.25;100.00;99541.66;5132804;28;20027;-76
2023/10/25 06:58:07;;;;;;;6.85;4.13;;;;;;;8.23;100.00;99533.09;5114271;28;20023;-77
2023/10/25 07:00:33;;;;;;;7.82;4.10;;;;;;;8.30;100.00;99528.44;5132840;28;20038;-77
2023/10/25 07:03:02;;;;;;;13.52;4.90;;;;;;;8.33;100.00;99520.03;5132956;28;20023;-77
2023/10/25 07:05:29;;;;;;;6.50;4.20;;;;;;;8.37;100.00;99520.38;5132795;28;20035;-75
2023/10/25 07:07:55;;;;;;;7.30;4.20;;;;;;;8.37;100.00;99520.38;5114311;28;20498;-76
2023/10/25 07:10:21;;;;;;;6.50;5.00;;;;;;;8.40;100.00;99511.13;5132723;28;20069;-76
2023/10/25 07:12:47;;;;;;;7.03;4.00;;;;;;;8.46;100.00;99520.84;5132759;28;20051;-75
2023/10/25 07:15:13;;;;;;;11.30;4.68;;;;;;;8.43;100.00;99506.16;5114290;28;20604;-77
2023/10/25 07:17:38;;;;;;;9.48;5.00;;;;;;;8.49;100.00;99504.41;5114233;28;20126;-77
2023/10/25 07:20:07;;;;;;;7.47;4.35;;;;;;;8.51;100.00;99504.97;5132424;27;20494;-77
2023/10/25 07:22:33;;;;;;;6.70;4.32;;;;;;;8.53;100.00;99500.22;5132780;28;20023;-76
2023/10/25 07:24:58;;;;;;;8.55;4.45;;;;;;;8.54;100.00;99492.00;5113986;28;20023;-78
2023/10/25 07:27:23;;;;;;;8.48;4.85;;;;;;;8.55;100.00;99495.47;5132265;28;20026;-77
2023/10/25 07:29:49;;;;;;;8.13;4.93;;;;;;;8.63;100.00;99501.25;5132251;28;20038;-77
2023/10/25 07:32:15;;;;;;;10.65;4.57;;;;;;;8.57;100.00;99499.50;5132223;28;20024;-78
2023/10/25 07:34:42;;;;;;;8.35;4.53;;;;;;;8.49;100.00;99494.56;5132372;28;20031;-78
2023/10/25 07:37:08;;;;;;;8.38;4.80;;;;;;;8.49;100.00;99505.22;5113869;28;20390;-78
2023/10/25 07:39:33;;;;;;;8.30;3.80;;;;;;;8.42;100.00;99495.72;5132218;28;20027;-77
2023/10/25 07:42:01;;;;;;;8.75;4.00;;;;;;;8.29;100.00;99484.22;5134048;27;20110;-78
2023/10/25 07:44:27;;;;;;;8.88;4.75;;;;;;;8.27;100.00;99481.00;5117279;28;20030;-78
2023/10/25 07:46:52;;;;;;;12.95;5.72;;;;;;;8.26;100.00;99484.69;5135775;28;20027;-78
2023/10/25 07:49:17;;;;;;;8.65;4.72;;;;;;;8.29;100.00;99472.75;5117374;28;20514;-77
2023/10/25 07:51:42;;;;;;;11.93;5.07;;;;;;;8.22;100.00;99472.88;5135796;28;20023;-78
2023/10/25 07:54:08;;;;;;;10.45;5.50;;;;;;;8.25;100.00;99469.75;5135601;28;20077;-79
2023/10/25 07:56:33;;;;;;;9.52;4.93;;;;;;;8.24;100.00;99457.50;5117038;28;20066;-78
2023/10/25 07:58:58;;;;;;;9.80;5.50;;;;;;;8.27;100.00;99453.56;5135385;28;20375;-77
2023/10/25 08:01:24;;;;;;;7.68;5.30;;;;;;;8.31;100.00;99444.84;5135414;28;20475;-78
2023/10/25 08:03:49;;;;;;;12.18;5.50;;;;;;;8.37;100.00;99438.63;5135622;28;20072;-77
2023/10/25 08:06:15;;;;;;;10.98;5.95;;;;;;;8.40;100.00;99428.56;5116912;28;20035;-79
2023/10/25 08:08:40;;;;;;;12.32;6.15;;;;;;;8.42;100.00;99427.28;5135454;28;20510;-78
2023/10/25 08:11:07;;;;;;;10.43;5.45;;;;;;;8.40;100.00;99426.72;5116946;28;20023;-79
2023/10/25 08:13:33;;;;;;;9.88;5.93;;;;;;;8.44;100.00;99427.06;5135353;28;20102;-78
2023/10/25 08:16:00;;;;;;;11.98;5.95;;;;;;;8.43;100.00;99430.75;5116698;28;20034;-77
2023/10/25 08:18:30;;;;;;;10.10;5.47;;;;;;;8.43;100.00;99425.44;5134988;27;20035;-76
2023/10/25 08:20:56;;;;;;;12.63;5.40;;;;;;;8.42;100.00;99418.50;5134970;28;20059;-77
2023/10/25 08:23:22;;;;;;;8.13;5.18;;;;;;;8.44;100.00;99419.88;5116716;28;20019;-76
2023/10/25 08:25:48;;;;;;;8.73;5.15;;;;;;;8.46;100.00;99416.97;5116804;28;20027;-79
2023/10/25 08:28:14;;;;;;;10.93;5.65;;;;;;;8.44;100.00;99403.06;5116618;28;20114;-78
2023/10/25 08:30:40;;;;;;;8.52;5.28;;;;;;;8.50;100.00;99407.47;5135121;28;20031;-78
2023/10/25 08:33:05;;;;;;;6.65;5.07;;;;;;;8.54;100.00;99406.75;5116372;28;20027;-78
2023/10/25 08:35:31;;;;;;;8.07;5.85;;;;;;;8.57;100.00;99406.28;5134872;28;20383;-78
2023/10/25 08:37:56;;;;;;;11.95;5.30;;;;;;;8.53;100.00;99399.81;5116279;28;20150;-78
2023/10/25 08:40:24;;;;;;;9.82;5.60;;;;;;;8.51;100.00;99399.22;5134827;28;20090;-78
2023/10/25 08:42:50;;;;;;;11.32;5.82;;;;;;;8.54;100.00;99389.97;5134884;28;20499;-79
2023/10/25 08:45:15;;;;;;;10.38;5.50;;;;;;;8.53;100.00;99380.34;5134789;28;20108;-79
2023/10/25 08:47:41;;;;;;;12.07;6.45;;;;;;;8.52;100.00;99363.56;5134772;28;20035;-80
2023/10/25 08:50:07;;;;;;;12.07;6.10;;;;;;;8.58;100.00;99385.75;5134612;28;20080;-80
2023/10/25 08:52:37;;;;;;;10.65;6.57;;;;;;;8.54;100.00;99379.31;5134391;27;20027;-80
2023/10/25 08:55:03;;;;;;;13.10;6.10;;;;;;;8.49;100.00;99364.03;5116185;28;20035;-80
2023/10/25 08:57:29;;;;;;;8.80;6.00;;;;;;;8.56;100.00;99371.88;5134578;28;20098;-80
2023/10/25 08:59:54;;;;;;;12.55;6.00;;;;;;;8.55;100.00;99359.59;5115974;28;20030;-79
2023/10/25 09:02:20;;;;;;;16.08;6.28;;;;;;;8.52;100.00;99358.22;5116065;28;20110;-79
2023/10/25 09:05:00;;;;;;;10.90;6.28;;;;;;;8.56;100.00;99361.22;5115957;28;20042;-79
2023/10/25 09:07:38;;;;;;;11.07;6.40;;;;;;;8.55;100.00;99355.09;5134459;28;20033;-81
2023/10/25 09:10:10;;;;;;;11.85;6.00;;;;;;;8.59;100.00;99355.41;5116248;28;20138;-80
2023/10/25 09:12:35;;;;;;;9.77;6.47;;;;;;;8.57;100.00;99355.66;5115983;28;20035;-80
2023/10/25 09:15:00;;;;;;;12.65;7.22;;;;;;;8.54;100.00;99347.31;5134182;28;20041;-80
2023/10/25 09:17:26;;;;;;;16.88;7.75;;;;;;;8.54;100.00;99337.47;5115786;28;20026;-80
2023/10/25 09:19:51;;;;;;;11.68;7.88;;;;;;;8.54;100.00;99342.81;5134055;27;20042;-80
2023/10/25 09:22:28;;;;;;;15.25;7.20;;;;;;;8.48;100.00;99337.63;5115911;28;20061;-80
2023/10/25 09:25:00;;;;;;;15.70;8.20;;;;;;;8.47;100.00;99328.84;5134065;28;20031;-81
2023/10/25 09:27:27;;;;;;;15.27;8.20;;;;;;;8.49;100.00;99316.09;5134014;28;20526;-81
2023/10/25 09:29:53;;;;;;;12.23;8.65;;;;;;;8.50;100.00;99325.69;5134075;28;20467;-79
2023/10/25 09:32:19;;;;;;;16.77;9.48;;;;;;;8.53;100.00;99335.88;5115527;28;20027;-81
2023/10/25 09:34:46;;;;;;;15.85;9.45;;;;;;;8.50;100.00;99324.88;5134026;28;20024;-82
2023/10/25 09:37:12;;;;;;;15.95;9.27;;;;;;;8.53;100.00;99319.06;5115441;28;20417;-81
2023/10/25 09:39:38;;;;;;;14.68;10.48;;;;;;;8.57;100.00;99317.53;5115392;28;20080;-82
2023/10/25 09:42:12;;;;;;;16.27;10.80;;;;;;;8.62;100.00;99317.63;5115603;28;20080;-82
2023/10/25 09:44:50;;;;;;;18.70;11.93;;;;;;;8.63;100.00;99309.41;5134012;28;20146;-82
2023/10/25 09:47:18;;;;;;;18.33;10.60;;;;;;;8.60;100.00;99298.41;5133806;28;20398;-81
2023/10/25 09:49:48;;;;;;;16.42;10.32;;;;;;;8.56;100.00;99290.09;5115271;28;20035;-82
2023/10/25 09:52:28;;;;;;;18.38;10.90;;;;;;;8.59;100.00;99286.94;5133666;28;20067;-82
2023/10/25 09:55:03;;;;;;;21.23;10.10;;;;;;;8.57;100.00;99272.25;5134191;28;20037;-82
2023/10/25 09:57:30;;;;;;;18.05;10.60;;;;;;;8.56;100.00;99278.63;5133674;28;20463;-82
2023/10/25 09:59:56;;;;;;;15.93;10.20;;;;;;;8.48;100.00;99266.53;5133482;28;20094;-82
2023/10/25 10:02:39;;;;;;;16.45;10.25;;;;;;;8.54;100.00;99267.41;5115092;28;20035;-82
2023/10/25 10:05:17;;;;;;;;;;;;;;;8.57;100.00;99274.91;5133019;27;20106;-81
2023/10/25 10:07:51;;;;;;;19.42;11.40;;;;;;;8.50;100.00;99256.44;5133447;28;19915;-81
2023/10/25 10:10:42;;;;;;;19.63;10.85;;;;;;;8.52;100.00;99254.34;5133319;28;20031;-80
2023/10/25 10:13:17;;;;;;;20.33;10.43;;;;;;;8.54;100.00;99254.91;5133357;28;20055;-80
2023/10/25 10:16:04;;;;;;;20.33;12.40;;;;;;;8.55;100.00;99243.19;5114975;28;20031;-80
2023/10/25 10:18:33;;;;;;;21.95;11.93;;;;;;;8.56;100.00;99244.00;5114924;28;20031;-79
2023/10/25 10:21:06;;;;;;;17.55;10.98;;;;;;;8.55;100.00;99237.06;5114818;28;20035;-79
2023/10/25 10:23:50;;;;;;;16.40;10.13;;;;;;;8.58;100.00;99234.72;5133325;28;20106;-79
2023/10/25 10:26:38;;;;;;;27.98;13.73;;;;;;;8.54;100.00;99212.28;5114788;28;20037;-77
2023/10/25 10:29:03;;;;;;;18.17;11.55;;;;;;;8.59;100.00;99214.22;5133121;28;20027;-78
2023/10/25 10:31:28;;;;;;;24.55;14.77;;;;;;;8.58;100.00;99209.94;5114733;28;20027;-78
2023/10/25 10:33:54;;;;;;;20.27;11.63;;;;;;;8.57;100.00;99201.13;5114726;28;20026;-78
2023/10/25 10:36:27;;;;;;;23.55;12.98;;;;;;;8.59;100.00;99180.38;5132906;28;20030;-78
2023/10/25 10:39:14;;;;;;;;;;;;;;;8.67;100.00;99181.84;5115226;28;20075;-77
2023/10/25 10:41:43;;;;;;;23.52;12.63;;;;;;;8.62;100.00;99179.91;5132865;28;20366;-78
2023/10/25 10:44:11;;;;;;;23.70;12.40;;;;;;;8.67;100.00;99177.34;5132901;28;20497;-78
2023/10/25 10:46:53;;;;;;;24.00;13.30;;;;;;;8.69;100.00;99171.78;5132856;28;20042;-77
2023/10/25 10:49:20;;;;;;;25.50;14.43;;;;;;;8.70;100.00;99170.72;5114489;28;20416;-79
2023/10/25 10:51:47;;;;;;;26.15;13.32;;;;;;;8.67;100.00;99161.34;5114495;28;20027;-77
2023/10/25 10:54:12;;;;;;;19.42;11.00;;;;;;;8.73;100.00;99164.09;5132702;28;20027;-78
2023/10/25 10:56:38;;;;;;;21.98;12.13;;;;;;;8.69;100.00;99151.25;5114309;28;20031;-78
2023/10/25 10:59:03;;;;;;;17.55;9.82;;;;;;;8.74;100.00;99150.53;5132630;28;20378;-79
2023/10/25 11:01:29;;;;;;;24.58;12.85;;;;;;;8.69;100.00;99126.47;5132702;28;20031;-80
2023/10/25 11:03:58;;;;;;;18.20;11.13;;;;;;;8.81;100.00;99137.84;5114648;28;20036;-77
2023/10/25 11:06:25;;;;;;;22.17;11.45;;;;;;;8.82;100.00;99133.31;5132547;28;20039;-80
2023/10/25 11:08:51;;;;;;;17.27;10.90;;;;;;;8.76;100.00;99121.78;5114209;28;20022;-78
2023/10/25 11:11:20;;;;;;;22.13;11.95;;;;;;;8.86;100.00;99118.44;5132511;28;20035;-77
2023/10/25 11:13:48;;;;;;;18.52;10.63;;;;;;;8.85;100.00;99117.63;5114056;28;20023;-77
2023/10/25 11:16:13;;;;;;;20.58;10.68;;;;;;;8.86;100.00;99105.91;5115849;28;20031;-77
2023/10/25 11:18:39;;;;;;;21.45;10.35;;;;;;;8.83;100.00;99101.09;5136086;27;20378;-78
2023/10/25 11:21:04;;;;;;;17.42;11.60;;;;;;;8.87;100.00;99101.41;5117655;28;20364;-77
2023/10/25 11:23:30;;;;;;;17.70;11.70;;;;;;;8.92;100.00;99110.25;5136035;28;20436;-78
2023/10/25 11:25:55;;;;;;;15.40;10.05;;;;;;;8.92;100.00;99104.94;5136055;28;20265;-78